Time;durP1;ratioP1;P1;durP2;ratioP2;P2;SDS_P1;SDS_P2;PMS_P1;PMS_P2;Temp;Humidity;BMP_temperature;BMP_pressure;BME280_temperature;BME280_humidity;BME280_pressure;Samples;Min_cycle;Max_cycle;Signal;HPM_P1;HPM_P2
2022/11/08 00:02:39;;;;;;;3.60;1.73;;;;;;;12.93;81.07;99889.72;5094144;28;21037;-61
2022/11/08 00:16:05;;;;;;;4.83;2.10;;;;;;;12.76;81.42;99896.06;5093193;28;20475;-61
2022/11/08 00:18:32;;;;;;;5.30;2.10;;;;;;;12.68;81.82;99894.19;5089475;28;20483;-61
2022/11/08 00:21:01;;;;;;;5.57;2.00;;;;;;;12.72;81.79;99900.88;5097784;28;20567;-62
2022/11/08 00:23:29;;;;;;;3.63;1.87;;;;;;;12.55;82.81;99896.47;5083522;28;20965;-61
2022/11/08 00:25:56;;;;;;;9.43;2.40;;;;;;;12.70;82.20;99897.53;5100144;28;20471;-62
2022/11/08 00:28:22;;;;;;;7.37;2.53;;;;;;;12.72;81.87;99889.31;5096157;28;20486;-62
2022/11/08 00:30:49;;;;;;;8.13;1.90;;;;;;;12.64;82.22;99895.50;5095355;28;20494;-62
2022/11/08 00:33:16;;;;;;;4.73;2.13;;;;;;;12.63;82.24;99891.13;5099877;28;20478;-61
2022/11/08 00:35:42;;;;;;;5.33;1.97;;;;;;;12.61;82.54;99887.78;5099102;28;20530;-61
2022/11/08 00:38:09;;;;;;;10.50;2.83;;;;;;;12.62;82.18;99897.53;5080437;28;20505;-61
2022/11/08 00:40:37;;;;;;;7.00;2.20;;;;;;;12.58;82.29;99891.63;5091499;28;20467;-61
2022/11/08 00:43:03;;;;;;;5.63;2.53;;;;;;;12.54;82.77;99892.13;5102842;28;20479;-61
2022/11/08 00:45:30;;;;;;;12.20;2.60;;;;;;;12.49;82.74;99891.78;5084782;28;20472;-61
2022/11/08 00:47:57;;;;;;;9.10;2.07;;;;;;;12.61;82.37;99880.56;5094785;28;20447;-61
2022/11/08 00:50:23;;;;;;;6.37;2.63;;;;;;;12.56;82.71;99882.91;5098955;28;20512;-61
2022/11/08 00:52:50;;;;;;;6.80;2.00;;;;;;;12.55;82.45;99883.06;5084238;28;20502;-61
2022/11/08 00:55:16;;;;;;;6.80;2.50;;;;;;;12.49;82.85;99883.72;5084580;28;20484;-61
2022/11/08 00:57:44;;;;;;;8.47;3.03;;;;;;;12.46;83.23;99884.03;5084638;28;20484;-61
2022/11/08 01:00:13;;;;;;;4.33;2.30;;;;;;;12.40;82.99;99874.81;5084410;28;20463;-61
2022/11/08 01:02:40;;;;;;;9.60;2.97;;;;;;;12.43;83.33;99875.31;5084423;28;20444;-61
2022/11/08 01:05:07;;;;;;;6.83;2.40;;;;;;;12.44;83.02;99877.00;5093305;28;20475;-62
2022/11/08 01:07:34;;;;;;;5.77;2.40;;;;;;;12.51;82.82;99881.72;5095397;28;20499;-61
2022/11/08 01:10:00;;;;;;;10.00;2.90;;;;;;;12.44;82.73;99871.63;5102843;28;20451;-61
2022/11/08 01:12:27;;;;;;;10.00;2.53;;;;;;;12.36;82.94;99876.13;5094953;28;20516;-61
2022/11/08 01:14:55;;;;;;;4.70;2.20;;;;;;;12.29;83.32;99875.09;5088930;28;20892;-61
2022/11/08 01:17:22;;;;;;;5.00;2.17;;;;;;;12.36;83.43;99878.78;5083331;28;20508;-61
2022/11/08 01:19:48;;;;;;;8.30;2.53;;;;;;;12.27;83.51;99877.94;5098406;28;20479;-61
2022/11/08 01:22:15;;;;;;;8.77;2.63;;;;;;;12.27;83.42;99869.88;5093673;28;20510;-61
2022/11/08 01:24:41;;;;;;;6.30;2.53;;;;;;;12.28;83.57;99870.75;5096941;28;20509;-63
2022/11/08 01:27:08;;;;;;;8.43;2.33;;;;;;;12.29;83.40;99873.25;5086162;28;20499;-62
2022/11/08 01:29:35;;;;;;;5.60;2.43;;;;;;;12.29;83.35;99867.03;5092973;28;20439;-61
2022/11/08 01:32:03;;;;;;;10.60;2.70;;;;;;;12.22;83.46;99856.97;5100577;28;20519;-61
2022/11/08 01:34:29;;;;;;;5.47;2.60;;;;;;;12.24;83.71;99864.88;5098819;28;20455;-61
2022/11/08 01:36:56;;;;;;;6.30;2.20;;;;;;;12.37;83.05;99870.59;5099317;28;21064;-62
2022/11/08 01:39:23;;;;;;;5.40;2.07;;;;;;;12.20;83.46;99867.03;5087501;28;20452;-62
2022/11/08 01:41:49;;;;;;;7.27;3.73;;;;;;;12.09;84.28;99867.28;5084979;28;20484;-62
2022/11/08 01:44:17;;;;;;;11.70;2.77;;;;;;;12.08;84.18;99876.31;5103630;28;20475;-61
2022/11/08 01:46:47;;;;;;;6.70;1.93;;;;;;;12.08;84.28;99859.41;5090908;27;20496;-61
2022/11/08 01:49:43;;;;;;;6.93;2.50;;;;;;;12.07;84.32;99858.59;5083159;28;20474;-61
2022/11/08 01:52:22;;;;;;;8.70;2.67;;;;;;;12.08;84.32;99865.59;5099549;28;20476;-61
2022/11/08 01:54:54;;;;;;;4.90;2.23;;;;;;;12.08;84.35;99852.22;5087037;28;20496;-61
2022/11/08 01:57:24;;;;;;;6.97;2.60;;;;;;;11.96;84.93;99848.13;5091102;28;20491;-61
2022/11/08 01:59:53;;;;;;;6.37;2.60;;;;;;;11.97;84.62;99856.00;5101460;28;20436;-61
2022/11/08 02:02:20;;;;;;;8.30;2.20;;;;;;;12.00;84.60;99847.66;5098072;28;20562;-61
2022/11/08 02:04:48;;;;;;;4.27;2.40;;;;;;;12.03;84.37;99852.72;5101091;28;20845;-61
2022/11/08 02:07:16;;;;;;;8.03;2.17;;;;;;;12.00;84.41;99844.97;5083061;28;20473;-62
2022/11/08 02:09:44;;;;;;;13.43;3.00;;;;;;;12.04;84.12;99850.84;5095229;28;20475;-61
2022/11/08 02:12:12;;;;;;;7.90;2.50;;;;;;;11.97;84.34;99858.69;5096047;28;21042;-61
2022/11/08 02:14:39;;;;;;;7.47;2.73;;;;;;;12.03;84.07;99847.34;5083230;28;20476;-61
2022/11/08 02:17:06;;;;;;;6.77;2.20;;;;;;;11.96;84.36;99849.00;5093795;28;20503;-61
2022/11/08 02:19:38;;;;;;;7.67;2.57;;;;;;;12.05;83.88;99849.88;5102626;28;20801;-61
2022/11/08 02:22:12;;;;;;;9.20;2.77;;;;;;;11.93;84.36;99841.25;5101022;28;20471;-61
2022/11/08 02:24:40;;;;;;;9.40;2.50;;;;;;;12.02;83.77;99851.00;5083302;28;20487;-61
2022/11/08 02:27:07;;;;;;;5.13;1.90;;;;;;;11.88;84.40;99832.84;5097645;28;20471;-62
2022/11/08 02:29:35;;;;;;;4.20;2.50;;;;;;;11.97;83.66;99844.47;5086753;28;20512;-61
2022/11/08 02:32:03;;;;;;;5.83;2.10;;;;;;;11.96;84.12;99843.63;5088049;28;20500;-61
2022/11/08 02:34:31;;;;;;;10.27;2.37;;;;;;;11.95;83.78;99852.66;5090251;28;20451;-61
2022/11/08 02:36:59;;;;;;;5.80;2.13;;;;;;;12.00;83.90;99836.94;5098669;28;20496;-61
2022/11/08 02:39:27;;;;;;;8.90;2.70;;;;;;;12.08;83.18;99830.78;5102063;28;20447;-62
2022/11/08 02:41:55;;;;;;;5.53;3.13;;;;;;;12.03;83.29;99838.44;5099168;28;20494;-62
2022/11/08 02:44:22;;;;;;;4.37;2.00;;;;;;;12.03;83.40;99833.94;5095333;28;20452;-62
2022/11/08 02:46:48;;;;;;;4.77;1.70;;;;;;;12.07;83.25;99829.09;5091614;28;20475;-62
2022/11/08 02:49:15;;;;;;;5.23;2.17;;;;;;;12.15;82.81;99825.59;5085836;28;20483;-62
2022/11/08 02:51:42;;;;;;;4.50;2.37;;;;;;;12.12;82.76;99823.28;5084654;28;20697;-62
2022/11/08 02:54:08;;;;;;;8.83;2.80;;;;;;;12.12;83.18;99823.28;5094733;28;20478;-61
2022/11/08 02:56:35;;;;;;;6.80;2.30;;;;;;;12.21;82.58;99816.94;5093139;28;20562;-61
2022/11/08 02:59:03;;;;;;;5.13;1.93;;;;;;;12.24;82.13;99813.94;5094712;28;20499;-61
2022/11/08 03:01:29;;;;;;;4.27;1.97;;;;;;;12.32;81.86;99816.63;5098269;28;20573;-61
2022/11/08 03:03:56;;;;;;;5.70;2.17;;;;;;;12.24;81.88;99821.97;5098262;28;20444;-62
2022/11/08 03:06:23;;;;;;;5.93;1.87;;;;;;;12.34;81.38;99816.47;5088498;28;20473;-62
2022/11/08 03:08:49;;;;;;;6.03;2.27;;;;;;;12.41;81.43;99815.66;5097608;28;20479;-62
2022/11/08 03:11:16;;;;;;;6.37;2.17;;;;;;;12.47;80.83;99807.97;5082989;28;20518;-62
2022/11/08 03:13:42;;;;;;;5.53;2.10;;;;;;;12.43;80.83;99813.66;5099814;28;20447;-62
2022/11/08 03:16:10;;;;;;;7.67;2.10;;;;;;;12.54;80.14;99811.69;5091851;28;20506;-61
2022/11/08 03:18:37;;;;;;;5.17;2.00;;;;;;;12.58;80.20;99815.69;5094677;28;20586;-61
2022/11/08 03:21:04;;;;;;;6.10;2.10;;;;;;;12.55;80.00;99813.34;5081013;28;20495;-61
2022/11/08 03:23:31;;;;;;;5.50;2.07;;;;;;;12.61;79.70;99804.66;5090468;28;20478;-61
2022/11/08 03:26:00;;;;;;;11.73;1.50;;;;;;;12.61;79.48;99800.13;5100561;28;20494;-61
2022/11/08 03:28:27;;;;;;;3.03;1.80;;;;;;;12.59;79.63;99806.66;5085294;28;20453;-61
2022/11/08 03:30:54;;;;;;;5.27;1.97;;;;;;;12.44;80.28;99799.22;5087648;28;20717;-61
2022/11/08 03:33:22;;;;;;;5.80;2.10;;;;;;;12.36;80.35;99799.22;5101650;28;20436;-61
2022/11/08 03:35:49;;;;;;;6.47;2.40;;;;;;;12.44;80.31;99799.22;5099519;28;20491;-61
2022/11/08 03:38:16;;;;;;;10.00;2.33;;;;;;;12.40;80.20;99795.22;5085847;28;20456;-61
2022/11/08 03:40:42;;;;;;;6.30;2.13;;;;;;;12.50;80.03;99797.75;5082453;28;20526;-60
2022/11/08 03:43:09;;;;;;;5.83;1.80;;;;;;;12.53;80.06;99794.72;5076162;28;20518;-60
2022/11/08 03:45:36;;;;;;;7.67;1.93;;;;;;;12.53;80.00;99797.41;5093610;28;20471;-61
2022/11/08 03:48:03;;;;;;;4.97;2.00;;;;;;;12.60;79.60;99789.56;5085749;28;20483;-60
2022/11/08 03:50:31;;;;;;;5.13;2.00;;;;;;;12.71;78.89;99805.34;5099434;28;20489;-61
2022/11/08 03:52:57;;;;;;;4.20;2.10;;;;;;;12.70;78.88;99790.25;5083493;28;20578;-60
2022/11/08 03:55:26;;;;;;;5.83;2.63;;;;;;;12.69;78.83;99795.75;5096833;28;20455;-60
2022/11/08 03:57:53;;;;;;;5.87;2.20;;;;;;;12.65;79.10;99784.53;5081465;28;20501;-61
2022/11/08 04:00:21;;;;;;;6.50;2.37;;;;;;;12.62;79.21;99776.84;5086794;28;20567;-62
2022/11/08 04:02:48;;;;;;;5.87;1.90;;;;;;;12.68;79.00;99776.16;5093550;28;20444;-62
2022/11/08 04:05:16;;;;;;;4.73;2.40;;;;;;;12.73;78.65;99771.13;5098544;28;20508;-61
2022/11/08 04:07:44;;;;;;;4.20;1.77;;;;;;;12.67;78.46;99771.78;5081535;28;20452;-61
2022/11/08 04:10:11;;;;;;;4.27;2.07;;;;;;;12.70;78.76;99768.78;5081087;28;20469;-61
2022/11/08 04:15:23;;;;;;;6.70;2.17;;;;;;;12.62;78.65;99758.91;5062532;28;20528;-62
2022/11/08 04:23:24;;;;;;;3.73;1.73;;;;;;;12.65;78.15;99747.00;5066915;28;20457;-62
2022/11/08 04:25:54;;;;;;;5.50;2.97;;;;;;;12.66;77.12;99743.31;5082524;28;20476;-62
2022/11/08 04:28:23;;;;;;;4.70;1.67;;;;;;;12.67;75.88;99744.97;5082011;28;21237;-62
2022/11/08 04:30:55;;;;;;;3.73;1.70;;;;;;;12.72;74.91;99742.63;5082113;28;20484;-63
2022/11/08 04:33:22;;;;;;;4.97;1.87;;;;;;;12.75;74.51;99742.28;5098153;28;20987;-62
2022/11/08 04:35:49;;;;;;;6.27;2.03;;;;;;;12.83;73.73;99736.13;5099229;28;20515;-62
2022/11/08 04:38:16;;;;;;;5.53;2.30;;;;;;;12.69;74.38;99734.94;5096412;28;20455;-63
2022/11/08 04:40:44;;;;;;;3.13;1.20;;;;;;;12.49;75.52;99747.81;5083577;28;20483;-63
2022/11/08 04:43:10;;;;;;;2.43;1.73;;;;;;;12.39;75.57;99736.41;5081751;28;20515;-62
2022/11/08 04:45:37;;;;;;;3.33;1.70;;;;;;;12.31;75.86;99733.69;5094786;28;20835;-62
2022/11/08 04:48:04;;;;;;;7.20;2.10;;;;;;;12.29;75.94;99731.22;5098531;28;20928;-62
2022/11/08 04:50:31;;;;;;;5.63;1.77;;;;;;;12.08;76.58;99725.44;5100065;28;20470;-62
2022/11/08 04:52:57;;;;;;;4.17;2.60;;;;;;;11.77;77.88;99710.75;5087462;28;20483;-62
2022/11/08 04:55:24;;;;;;;3.10;1.73;;;;;;;11.81;78.31;99705.91;5098605;28;20451;-62
2022/11/08 04:57:57;;;;;;;4.40;2.10;;;;;;;11.64;78.75;99719.22;5088632;28;20456;-62
2022/11/08 05:00:23;;;;;;;5.87;1.97;;;;;;;11.50;79.80;99715.31;5080414;28;20457;-61
2022/11/08 05:02:50;;;;;;;6.10;2.90;;;;;;;11.60;79.70;99731.25;5094842;28;20496;-60
2022/11/08 05:05:17;;;;;;;5.97;1.80;;;;;;;11.52;79.80;99723.19;5095932;28;20538;-61
2022/11/08 05:07:43;;;;;;;13.40;1.70;;;;;;;11.48;80.06;99725.34;5099201;28;20494;-61
2022/11/08 05:10:10;;;;;;;3.43;1.50;;;;;;;11.41;80.60;99726.97;5081399;28;20484;-61
2022/11/08 05:12:37;;;;;;;3.13;1.97;;;;;;;11.40;80.63;99736.00;5094317;28;20954;-61
2022/11/08 05:15:06;;;;;;;2.97;1.90;;;;;;;11.26;81.42;99737.41;5089151;28;20451;-61
2022/11/08 05:17:32;;;;;;;7.90;2.13;;;;;;;11.24;81.96;99738.59;5100213;28;20439;-61
2022/11/08 05:25:42;;;;;;;3.67;1.70;;;;;;;11.39;81.67;99725.47;5038780;28;20473;-61
2022/11/08 05:28:09;;;;;;;7.30;2.00;;;;;;;11.29;82.00;99725.56;5072816;28;20467;-61
2022/11/08 05:30:37;;;;;;;4.30;2.00;;;;;;;11.44;81.60;99723.13;5082207;28;20741;-73
2022/11/08 05:33:04;;;;;;;5.30;2.37;;;;;;;11.30;81.68;99720.06;5077800;28;20927;-73
2022/11/08 05:35:30;;;;;;;6.60;2.53;;;;;;;11.37;81.94;99709.56;5090236;28;20456;-73
2022/11/08 05:37:57;;;;;;;4.63;2.10;;;;;;;11.34;81.78;99709.06;5082569;28;20464;-73
2022/11/08 05:40:23;;;;;;;5.63;2.03;;;;;;;11.35;81.71;99706.19;5081250;28;20448;-72
2022/11/08 05:42:50;;;;;;;5.37;1.90;;;;;;;11.38;81.92;99705.06;5082810;28;20534;-73
2022/11/08 05:45:17;;;;;;;7.30;2.47;;;;;;;11.30;81.85;99709.38;5096101;28;20466;-73
2022/11/08 05:47:46;;;;;;;2.80;1.67;;;;;;;11.38;81.96;99700.53;5088843;28;20988;-73
2022/11/08 05:50:12;;;;;;;4.73;2.67;;;;;;;11.39;81.68;99706.75;5086028;28;20456;-73
2022/11/08 05:52:39;;;;;;;5.73;1.73;;;;;;;11.43;81.32;99708.91;5102327;28;20551;-73
2022/11/08 05:55:07;;;;;;;3.80;2.00;;;;;;;11.38;81.47;99699.69;5100489;28;20550;-73
2022/11/08 05:57:33;;;;;;;5.83;2.13;;;;;;;11.28;81.59;99702.47;5099152;28;20459;-73
2022/11/08 06:00:00;;;;;;;4.20;1.80;;;;;;;11.19;82.20;99693.56;5087652;28;20478;-73
2022/11/08 06:02:28;;;;;;;3.57;2.10;;;;;;;11.15;82.12;99705.59;5102684;28;20472;-73
2022/11/08 06:04:56;;;;;;;4.30;1.90;;;;;;;11.10;82.56;99703.38;5088688;28;20554;-73
2022/11/08 06:07:22;;;;;;;8.83;2.43;;;;;;;11.09;83.74;99696.38;5081771;28;20476;-64
2022/11/08 06:09:52;;;;;;;3.70;1.90;;;;;;;11.20;83.23;99700.59;5089884;28;20478;-64
2022/11/08 06:12:19;;;;;;;2.30;1.90;;;;;;;11.31;82.93;99688.78;5082457;28;20552;-69
2022/11/08 06:14:46;;;;;;;9.40;2.67;;;;;;;11.31;81.80;99694.13;5090899;28;20455;-64
2022/11/08 06:17:12;;;;;;;5.43;3.23;;;;;;;11.26;81.21;99686.56;5097473;28;20520;-68
2022/11/08 06:19:39;;;;;;;8.47;3.10;;;;;;;11.09;82.54;99684.81;5082546;28;20461;-68
2022/11/08 06:22:07;;;;;;;4.27;2.23;;;;;;;11.02;82.75;99683.75;5088233;28;20471;-68
2022/11/08 06:24:34;;;;;;;6.53;2.27;;;;;;;10.86;83.41;99690.69;5101487;28;20450;-69
2022/11/08 06:27:00;;;;;;;5.97;4.00;;;;;;;10.90;83.59;99688.53;5098502;28;20563;-69
2022/11/08 06:29:27;;;;;;;4.53;2.30;;;;;;;10.97;83.19;99694.09;5102451;28;20455;-69
2022/11/08 06:31:54;;;;;;;3.93;2.30;;;;;;;10.90;83.24;99683.19;5101120;28;20479;-70
2022/11/08 06:34:20;;;;;;;4.50;2.50;;;;;;;10.85;83.40;99688.16;5082412;28;20444;-69
2022/11/08 06:36:47;;;;;;;2.97;2.13;;;;;;;10.84;83.59;99684.66;5079922;28;20484;-70
2022/11/08 06:39:15;;;;;;;4.60;2.67;;;;;;;10.86;83.46;99684.50;5079877;28;20491;-69
2022/11/08 06:41:42;;;;;;;4.53;2.50;;;;;;;10.98;82.76;99685.09;5080700;28;20502;-69
2022/11/08 06:44:08;;;;;;;4.60;2.87;;;;;;;11.02;82.76;99668.53;5097309;28;20693;-69
2022/11/08 06:46:35;;;;;;;5.37;2.23;;;;;;;11.00;82.42;99672.38;5100704;28;20475;-69
2022/11/08 06:49:02;;;;;;;2.30;2.10;;;;;;;10.96;82.80;99679.88;5100620;28;20451;-69
2022/11/08 06:51:29;;;;;;;4.27;2.17;;;;;;;10.97;82.47;99680.72;5080900;28;20472;-68
2022/11/08 06:53:56;;;;;;;5.67;3.07;;;;;;;10.93;82.72;99675.69;5081007;28;20523;-69
2022/11/08 06:56:25;;;;;;;3.47;2.30;;;;;;;11.00;82.57;99670.53;5085960;28;20511;-69
2022/11/08 06:58:52;;;;;;;4.83;2.13;;;;;;;11.11;82.11;99664.09;5090830;28;20448;-69
2022/11/08 07:01:19;;;;;;;5.60;2.97;;;;;;;11.08;81.99;99667.94;5085447;28;20468;-69
2022/11/08 07:03:45;;;;;;;5.87;2.97;;;;;;;11.09;82.28;99666.06;5080516;28;20476;-69
2022/11/08 07:06:12;;;;;;;6.53;3.43;;;;;;;11.03;82.25;99659.53;5079658;28;20464;-69
2022/11/08 07:08:39;;;;;;;9.17;3.33;;;;;;;11.15;82.12;99657.44;5099501;28;20455;-69
2022/11/08 07:11:06;;;;;;;4.80;2.40;;;;;;;11.43;81.08;99662.59;5089067;28;20472;-69
2022/11/08 07:13:33;;;;;;;6.00;2.67;;;;;;;11.26;81.49;99646.44;5082062;28;20498;-69
2022/11/08 07:16:01;;;;;;;4.53;2.53;;;;;;;11.44;80.49;99640.16;5080352;28;20476;-69
2022/11/08 07:18:28;;;;;;;3.47;2.77;;;;;;;11.50;80.57;99634.16;5090051;28;20451;-69
2022/11/08 07:20:58;;;;;;;6.13;2.77;;;;;;;11.56;80.31;99632.69;5100179;28;20474;-69
2022/11/08 07:23:25;;;;;;;6.67;2.63;;;;;;;11.65;80.22;99627.19;5101209;28;21015;-69
2022/11/08 07:25:52;;;;;;;3.40;2.53;;;;;;;11.92;79.18;99622.59;5098974;28;20991;-69
2022/11/08 07:28:19;;;;;;;8.33;2.70;;;;;;;11.97;78.84;99620.25;5097993;28;20452;-69
2022/11/08 07:30:48;;;;;;;9.20;3.33;;;;;;;12.34;77.04;99627.00;5080665;28;20488;-70
2022/11/08 07:33:15;;;;;;;3.90;2.70;;;;;;;12.97;73.97;99627.28;5081059;28;21020;-70
2022/11/08 07:35:45;;;;;;;4.20;2.33;;;;;;;13.44;72.21;99613.03;5084746;28;20467;-71
2022/11/08 07:38:11;;;;;;;2.90;2.17;;;;;;;14.78;66.76;99613.59;5101104;28;20517;-71
2022/11/08 07:40:38;;;;;;;4.90;2.27;;;;;;;15.48;63.10;99611.47;5099200;28;20833;-71
2022/11/08 07:43:05;;;;;;;3.27;2.13;;;;;;;15.80;61.79;99604.81;5100178;28;20993;-71
2022/11/08 07:45:31;;;;;;;3.13;2.13;;;;;;;16.87;58.24;99600.41;5100365;28;20464;-70
2022/11/08 07:48:00;;;;;;;4.80;2.30;;;;;;;17.08;56.43;99595.94;5079731;28;20452;-68
2022/11/08 07:50:27;;;;;;;10.03;3.93;;;;;;;17.17;55.60;99597.47;5085113;28;20545;-69
2022/11/08 07:52:57;;;;;;;5.13;1.90;;;;;;;17.29;55.04;99601.28;5078841;28;20519;-69
2022/11/08 07:55:24;;;;;;;2.13;1.67;;;;;;;16.32;58.24;99596.63;5093896;28;20461;-68
2022/11/08 07:57:51;;;;;;;4.33;1.80;;;;;;;17.19;56.94;99592.69;5090616;28;20447;-69
2022/11/08 08:00:18;;;;;;;4.20;2.10;;;;;;;17.15;56.47;99604.94;5080443;28;20446;-68
2022/11/08 08:02:45;;;;;;;3.27;1.80;;;;;;;17.39;55.50;99600.88;5099690;28;21074;-69
2022/11/08 08:05:13;;;;;;;7.07;1.83;;;;;;;16.69;57.12;99591.94;5083087;28;20959;-70
2022/11/08 08:07:39;;;;;;;3.20;1.57;;;;;;;15.87;60.00;99598.69;5080601;28;20520;-69
2022/11/08 08:10:07;;;;;;;3.57;1.90;;;;;;;15.50;60.91;99577.09;5079676;28;20449;-69
2022/11/08 08:12:33;;;;;;;2.80;1.77;;;;;;;16.59;58.35;99584.19;5085354;28;20928;-68
2022/11/08 08:15:00;;;;;;;5.60;2.00;;;;;;;16.27;58.54;99582.91;5081208;28;21012;-69
2022/11/08 08:17:26;;;;;;;2.57;1.67;;;;;;;16.22;58.97;99579.94;5084444;28;20478;-69
2022/11/08 08:19:53;;;;;;;3.73;2.10;;;;;;;16.82;57.26;99581.25;5100076;28;20457;-69
2022/11/08 08:22:21;;;;;;;4.97;2.10;;;;;;;16.59;57.56;99580.66;5085133;28;20545;-70
2022/11/08 08:24:48;;;;;;;2.10;1.80;;;;;;;17.29;54.44;99584.19;5082530;28;20589;-70
2022/11/08 08:27:14;;;;;;;6.33;1.97;;;;;;;17.36;54.14;99577.00;5099799;28;20505;-70
2022/11/08 08:29:41;;;;;;;4.50;1.97;;;;;;;17.50;53.23;99576.00;5099171;28;20457;-69
2022/11/08 08:32:08;;;;;;;4.80;1.63;;;;;;;17.69;52.82;99576.28;5098521;28;20557;-68
2022/11/08 08:34:34;;;;;;;3.37;1.80;;;;;;;18.08;52.27;99573.88;5079673;28;20517;-69
2022/11/08 08:37:01;;;;;;;4.83;1.67;;;;;;;18.15;50.82;99567.44;5078037;28;20512;-67
2022/11/08 08:39:29;;;;;;;2.50;1.73;;;;;;;18.08;51.14;99574.72;5080836;28;20459;-68
2022/11/08 08:41:55;;;;;;;3.93;2.23;;;;;;;18.16;50.63;99579.09;5098895;28;20535;-68
2022/11/08 08:44:22;;;;;;;2.53;1.80;;;;;;;18.12;50.97;99569.72;5083656;28;20505;-68
2022/11/08 08:46:49;;;;;;;2.67;1.60;;;;;;;16.98;52.60;99585.53;5087710;28;20525;-68
2022/11/08 08:49:16;;;;;;;5.20;1.50;;;;;;;16.92;53.67;99570.09;5092834;28;20456;-68
2022/11/08 08:51:42;;;;;;;3.50;1.40;;;;;;;17.34;52.83;99568.22;5097756;28;21011;-68
2022/11/08 08:54:10;;;;;;;6.77;1.50;;;;;;;17.60;52.41;99561.25;5098693;28;20848;-67
2022/11/08 08:56:38;;;;;;;4.83;1.97;;;;;;;17.40;51.86;99562.03;5099220;28;20685;-68
2022/11/08 08:59:05;;;;;;;3.13;1.50;;;;;;;17.60;51.10;99586.44;5100053;28;20978;-68
2022/11/08 09:01:31;;;;;;;3.03;1.97;;;;;;;17.53;51.58;99566.63;5099871;28;20488;-68
2022/11/08 09:03:58;;;;;;;2.90;1.57;;;;;;;17.82;50.75;99580.88;5103499;28;20465;-68
2022/11/08 09:06:25;;;;;;;3.50;1.50;;;;;;;18.32;49.26;99570.56;5103641;28;20536;-68
2022/11/08 09:08:51;;;;;;;2.60;1.47;;;;;;;18.32;49.47;99564.34;5087269;28;20487;-69
2022/11/08 09:11:18;;;;;;;7.47;1.77;;;;;;;18.24;48.73;99570.75;5083520;28;20496;-68
2022/11/08 09:13:46;;;;;;;3.00;1.37;;;;;;;18.69;47.45;99576.38;5084303;28;20518;-68
2022/11/08 09:16:13;;;;;;;6.77;1.77;;;;;;;18.96;47.30;99570.97;5083386;28;20479;-68
2022/11/08 09:18:39;;;;;;;3.47;1.40;;;;;;;19.57;44.88;99556.94;5083582;28;20468;-67
2022/11/08 09:21:06;;;;;;;2.63;1.30;;;;;;;19.27;44.89;99572.09;5084428;28;20470;-68
2022/11/08 09:23:33;;;;;;;2.70;1.33;;;;;;;19.88;43.99;99555.34;5104217;28;20472;-68
2022/11/08 09:26:01;;;;;;;2.90;1.23;;;;;;;19.80;43.98;99565.63;5102158;28;20910;-67
2022/11/08 09:28:29;;;;;;;2.87;1.40;;;;;;;19.37;45.23;99546.22;5103157;28;20511;-68
2022/11/08 09:30:59;;;;;;;2.70;1.77;;;;;;;20.92;42.22;99554.06;5082031;28;20509;-68
2022/11/08 09:33:26;;;;;;;1.80;1.10;;;;;;;20.60;42.15;99538.69;5099640;28;21038;-68
2022/11/08 09:35:53;;;;;;;2.77;1.30;;;;;;;20.63;41.70;99538.28;5100783;28;20899;-68
2022/11/08 09:38:20;;;;;;;1.93;1.07;;;;;;;20.07;42.60;99544.59;5100784;28;20518;-68
2022/11/08 09:40:53;;;;;;;2.23;1.17;;;;;;;19.78;43.51;99536.00;5101896;28;20480;-69
2022/11/08 09:43:42;;;;;;;3.37;1.40;;;;;;;19.57;43.68;99534.44;5102009;28;20494;-68
2022/11/08 09:46:11;;;;;;;3.03;1.50;;;;;;;19.10;45.25;99542.78;5077112;28;20531;-68
2022/11/08 09:48:41;;;;;;;3.27;1.33;;;;;;;18.36;46.10;99533.91;5096682;28;20455;-69
2022/11/08 09:51:14;;;;;;;1.80;0.93;;;;;;;18.91;45.69;99530.13;5083981;28;20488;-68
2022/11/08 09:53:45;;;;;;;1.97;1.30;;;;;;;18.24;46.94;99536.44;5101903;28;20520;-68
2022/11/08 09:56:15;;;;;;;5.63;2.03;;;;;;;18.98;45.46;99522.81;5083649;28;20508;-68
2022/11/08 09:58:48;;;;;;;1.57;1.00;;;;;;;19.62;43.47;99518.34;5082948;28;20488;-68
2022/11/08 10:01:16;;;;;;;5.03;1.37;;;;;;;19.77;43.66;99515.34;5080991;28;20465;-68
2022/11/08 10:03:47;;;;;;;4.50;1.40;;;;;;;19.18;43.96;99522.72;5082444;28;20427;-68
2022/11/08 10:06:25;;;;;;;2.90;1.13;;;;;;;18.52;45.54;99510.16;5091414;28;20844;-68
2022/11/08 10:08:59;;;;;;;3.90;1.10;;;;;;;18.41;45.35;99509.75;5101731;28;20910;-68
2022/11/08 10:11:35;;;;;;;3.20;1.27;;;;;;;18.53;45.27;99509.13;5101182;28;20468;-68
2022/11/08 10:14:13;;;;;;;3.67;1.10;;;;;;;18.97;43.73;99522.00;5100686;28;20660;-69
2022/11/08 10:16:48;;;;;;;1.63;1.00;;;;;;;19.07;44.12;99512.56;5100694;28;20482;-68
2022/11/08 10:19:27;;;;;;;2.63;1.40;;;;;;;18.85;44.33;99507.41;5101938;28;20494;-68
2022/11/08 10:21:58;;;;;;;1.93;0.90;;;;;;;18.88;44.75;99514.28;5085725;28;20506;-68
2022/11/08 10:24:35;;;;;;;2.90;1.30;;;;;;;18.77;44.99;99508.47;5087580;28;20500;-68
2022/11/08 10:27:02;;;;;;;2.20;1.10;;;;;;;18.51;45.57;99516.66;5100949;28;20484;-68
2022/11/08 10:29:32;;;;;;;2.57;1.23;;;;;;;18.35;45.88;99516.03;5080959;28;20485;-68
2022/11/08 10:32:04;;;;;;;3.23;1.40;;;;;;;17.92;46.82;99507.50;5081245;28;20511;-68
2022/11/08 10:34:36;;;;;;;2.67;1.10;;;;;;;17.90;47.40;99509.56;5095205;28;21040;-68
2022/11/08 10:37:06;;;;;;;1.80;1.23;;;;;;;18.31;46.77;99522.88;5088246;28;20487;-68
2022/11/08 10:39:38;;;;;;;2.50;1.10;;;;;;;18.36;46.32;99504.16;5061684;28;20539;-67
2022/11/08 10:42:09;;;;;;;3.13;1.27;;;;;;;18.32;46.20;99521.84;5080081;28;20492;-68
2022/11/08 10:44:36;;;;;;;9.67;1.20;;;;;;;18.16;46.48;99516.88;5101364;28;20427;-68
2022/11/08 10:47:06;;;;;;;4.73;1.10;;;;;;;18.34;46.73;99514.34;5080336;28;20476;-68
2022/11/08 10:49:36;;;;;;;3.80;1.50;;;;;;;18.49;46.52;99511.44;5080552;28;20562;-67
2022/11/08 10:52:16;;;;;;;5.10;1.30;;;;;;;18.93;45.11;99517.19;5085471;28;20483;-68
2022/11/08 10:54:46;;;;;;;2.77;1.10;;;;;;;18.48;45.89;99512.47;5101846;28;20810;-68
2022/11/08 10:57:14;;;;;;;3.73;1.33;;;;;;;18.67;45.32;99508.06;5099693;28;20478;-68
2022/11/08 10:59:41;;;;;;;2.50;1.20;;;;;;;18.34;45.87;99514.34;5087915;28;20480;-69
2022/11/08 11:02:32;;;;;;;2.47;1.13;;;;;;;18.88;45.13;99496.16;5080991;28;20476;-69
2022/11/08 11:05:24;;;;;;;3.50;1.20;;;;;;;18.87;44.34;99493.66;5081300;28;20433;-69
2022/11/08 11:08:00;;;;;;;2.00;1.17;;;;;;;18.19;45.90;99502.91;5098030;28;20948;-68
2022/11/08 11:10:28;;;;;;;1.93;1.00;;;;;;;18.37;45.59;99492.28;5088588;28;20463;-68
2022/11/08 11:13:02;;;;;;;3.07;1.10;;;;;;;18.42;46.22;99494.38;5081693;28;20528;-68
2022/11/08 11:15:33;;;;;;;2.90;1.40;;;;;;;18.64;45.37;99484.13;5080409;28;20466;-69
2022/11/08 11:18:01;;;;;;;3.23;1.20;;;;;;;19.16;44.17;99484.16;5096844;28;20503;-69
2022/11/08 11:20:30;;;;;;;2.80;1.10;;;;;;;19.06;44.29;99475.66;5093092;28;20494;-69
2022/11/08 11:22:58;;;;;;;6.40;1.10;;;;;;;19.66;42.30;99473.47;5100250;28;20447;-69
2022/11/08 11:25:25;;;;;;;5.23;2.63;;;;;;;19.24;43.38;99481.22;5099643;28;20454;-69
2022/11/08 11:27:55;;;;;;;2.17;0.97;;;;;;;19.12;44.03;99464.81;5090050;28;20451;-68
2022/11/08 11:30:25;;;;;;;2.30;1.07;;;;;;;19.40;44.05;99465.50;5080862;28;20609;-69
2022/11/08 11:32:56;;;;;;;1.57;1.20;;;;;;;18.84;44.87;99459.72;5080592;28;20600;-68
2022/11/08 11:35:25;;;;;;;2.70;1.27;;;;;;;18.82;44.76;99453.69;5079909;28;20484;-69
2022/11/08 11:37:54;;;;;;;3.83;1.27;;;;;;;18.54;44.88;99462.91;5079119;28;20456;-68
2022/11/08 11:40:27;;;;;;;3.10;1.37;;;;;;;18.78;45.51;99460.53;5079867;28;20480;-69
2022/11/08 11:43:01;;;;;;;2.03;0.93;;;;;;;19.30;44.16;99455.94;5066501;28;20483;-69
2022/11/08 11:45:32;;;;;;;4.43;1.60;;;;;;;19.51;43.60;99445.81;5079503;28;20473;-69
2022/11/08 11:48:02;;;;;;;1.47;0.97;;;;;;;18.78;44.47;99437.03;5080607;28;20467;-69
2022/11/08 11:50:33;;;;;;;3.03;1.30;;;;;;;18.87;44.20;99432.22;5079718;28;20465;-69
2022/11/08 11:53:03;;;;;;;2.50;1.07;;;;;;;18.33;44.74;99436.94;5094456;28;20486;-69
2022/11/08 11:55:42;;;;;;;3.47;1.10;;;;;;;18.06;44.82;99433.44;5096358;28;20474;-69
2022/11/08 11:58:21;;;;;;;1.80;0.90;;;;;;;18.69;44.68;99429.34;5075757;28;20482;-69
2022/11/08 12:00:51;;;;;;;3.53;1.23;;;;;;;18.51;45.01;99425.44;5059124;28;20476;-68
2022/11/08 12:03:30;;;;;;;4.20;1.30;;;;;;;18.31;44.88;99417.34;5075699;28;20800;-68
2022/11/08 12:06:10;;;;;;;4.50;1.20;;;;;;;18.53;44.97;99422.53;5097421;28;20861;-68